createdAt,value
2022-11-21T00:01:18.907Z,3.07
2022-11-21T00:03:47.231Z,2.80
2022-11-21T00:06:15.849Z,2.50
2022-11-21T00:08:44.218Z,2.53
2022-11-21T00:11:12.483Z,2.57
2022-11-21T00:13:40.801Z,2.87
2022-11-21T00:16:10.408Z,2.20
2022-11-21T00:18:40.625Z,2.47
2022-11-21T00:21:09.387Z,2.33
2022-11-21T00:23:37.778Z,2.40
2022-11-21T00:26:06.973Z,2.20
2022-11-21T00:28:35.380Z,2.00
2022-11-21T00:31:03.904Z,1.90
2022-11-21T00:33:32.635Z,2.03
2022-11-21T00:36:07.433Z,1.93
2022-11-21T00:38:35.841Z,1.97
2022-11-21T00:41:04.352Z,1.80
2022-11-21T00:43:32.789Z,1.50
2022-11-21T00:46:03.261Z,1.90
2022-11-21T00:48:32.165Z,2.00
2022-11-21T00:51:02.088Z,1.90
2022-11-21T00:53:30.600Z,1.93
2022-11-21T00:55:58.954Z,2.00
2022-11-21T00:58:27.307Z,1.70
2022-11-21T01:01:03.939Z,1.27
2022-11-21T01:03:33.746Z,1.70
2022-11-21T01:06:04.563Z,1.70
2022-11-21T01:08:32.982Z,1.70
2022-11-21T01:11:04.221Z,1.53
2022-11-21T01:13:32.547Z,1.57
2022-11-21T01:16:05.067Z,1.47
2022-11-21T01:18:33.438Z,1.43
2022-11-21T01:21:03.588Z,1.50
2022-11-21T01:23:31.922Z,1.43
2022-11-21T01:26:03.655Z,1.40
2022-11-21T01:28:32.520Z,1.43
2022-11-21T01:31:07.247Z,1.60
2022-11-21T01:33:35.713Z,1.50
2022-11-21T01:36:12.895Z,1.50
2022-11-21T01:38:41.388Z,1.60
2022-11-21T01:41:10.159Z,1.80
2022-11-21T01:43:38.633Z,1.90
2022-11-21T01:46:10.537Z,1.90
2022-11-21T01:48:40.001Z,1.90
2022-11-21T01:51:13.090Z,1.87
2022-11-21T01:53:41.690Z,2.10
2022-11-21T01:56:10.121Z,1.97
2022-11-21T01:58:38.451Z,2.10
2022-11-21T02:01:06.892Z,2.10
2022-11-21T02:03:36.194Z,2.23
2022-11-21T02:06:04.614Z,2.60
2022-11-21T02:08:34.688Z,2.53
2022-11-21T02:11:08.372Z,2.70
2022-11-21T02:13:36.802Z,2.60
2022-11-21T02:16:05.390Z,2.77
2022-11-21T02:18:33.666Z,2.67
2022-11-21T02:21:05.466Z,2.77
2022-11-21T02:23:38.092Z,2.73
2022-11-21T02:26:07.916Z,2.43
2022-11-21T02:28:36.251Z,2.37
2022-11-21T02:31:04.544Z,3.00
2022-11-21T02:33:32.861Z,2.63
2022-11-21T02:36:02.060Z,2.90
2022-11-21T02:38:32.222Z,2.83
2022-11-21T02:41:03.987Z,2.77
2022-11-21T02:43:34.919Z,2.60
2022-11-21T02:46:03.315Z,2.70
2022-11-21T02:48:31.674Z,3.00
2022-11-21T02:51:00.148Z,2.50
2022-11-21T02:53:28.481Z,2.50
2022-11-21T02:55:56.829Z,2.57
2022-11-21T02:58:26.838Z,2.30
2022-11-21T03:00:56.800Z,1.90
2022-11-21T03:03:25.440Z,2.10
2022-11-21T03:05:53.715Z,2.03
2022-11-21T03:08:22.044Z,2.10
2022-11-21T03:10:50.462Z,2.50
2022-11-21T03:13:18.766Z,2.23
2022-11-21T03:15:47.049Z,2.00
2022-11-21T03:18:17.084Z,1.90
2022-11-21T03:20:45.463Z,2.10
2022-11-21T03:23:13.752Z,2.23
2022-11-21T03:25:42.145Z,2.00
2022-11-21T03:28:10.489Z,2.00
2022-11-21T03:30:39.101Z,2.43
2022-11-21T03:33:07.490Z,2.30
2022-11-21T03:35:37.235Z,2.50
2022-11-21T03:38:05.473Z,2.07
2022-11-21T03:40:33.744Z,2.20
2022-11-21T03:43:05.847Z,2.07
2022-11-21T03:45:34.467Z,2.23
2022-11-21T03:48:03.011Z,2.57
2022-11-21T03:50:31.299Z,2.10
2022-11-21T03:53:01.035Z,2.00
2022-11-21T03:55:29.434Z,1.83
2022-11-21T03:57:57.783Z,2.00
2022-11-21T04:00:26.404Z,2.03
2022-11-21T04:02:54.659Z,2.20
2022-11-21T04:05:22.987Z,2.03
2022-11-21T04:07:51.351Z,2.50
2022-11-21T04:10:21.185Z,2.10
2022-11-21T04:12:49.815Z,2.20
2022-11-21T04:15:18.163Z,1.87
2022-11-21T04:17:46.430Z,2.27
2022-11-21T04:20:14.880Z,2.00
2022-11-21T04:22:43.724Z,2.13
2022-11-21T04:25:13.787Z,1.87
2022-11-21T04:27:43.485Z,2.80
2022-11-21T04:30:12.899Z,2.07
2022-11-21T04:32:41.139Z,2.00
2022-11-21T04:35:10.003Z,2.10
2022-11-21T04:37:40.440Z,2.20
2022-11-21T04:40:09.935Z,2.03
2022-11-21T04:42:38.229Z,2.20
2022-11-21T04:45:09.200Z,2.47
2022-11-21T04:47:38.238Z,1.93
2022-11-21T04:50:07.301Z,1.83
2022-11-21T04:52:36.284Z,2.00
2022-11-21T04:55:04.830Z,1.93
2022-11-21T04:57:33.093Z,1.97
2022-11-21T05:00:01.381Z,1.83
2022-11-21T05:02:31.036Z,2.10
2022-11-21T05:04:59.295Z,2.30
2022-11-21T05:07:27.864Z,2.23
2022-11-21T05:10:02.239Z,1.63
2022-11-21T05:12:48.156Z,1.70
2022-11-21T05:15:19.261Z,1.60
2022-11-21T05:17:52.964Z,1.90
2022-11-21T05:20:21.231Z,1.70
2022-11-21T05:22:52.987Z,1.80
2022-11-21T05:25:21.302Z,1.97
2022-11-21T05:27:49.618Z,1.93
2022-11-21T05:30:18.069Z,1.60
2022-11-21T05:32:46.424Z,1.73
2022-11-21T05:35:16.669Z,1.73
2022-11-21T05:37:44.882Z,1.70
2022-11-21T05:40:13.630Z,1.70
2022-11-21T05:42:59.393Z,1.63
2022-11-21T05:45:27.707Z,1.63
2022-11-21T05:47:56.095Z,1.90
2022-11-21T05:50:25.895Z,1.50
2022-11-21T05:52:54.191Z,1.53
2022-11-21T05:55:22.497Z,1.80
2022-11-21T05:57:50.738Z,2.10
2022-11-21T06:00:19.756Z,1.70
2022-11-21T06:03:06.830Z,1.60
2022-11-21T06:05:36.555Z,1.70
2022-11-21T06:08:04.897Z,1.80
2022-11-21T06:10:33.193Z,1.47
2022-11-21T06:13:02.135Z,1.53
2022-11-21T06:15:30.546Z,1.40
2022-11-21T06:18:01.791Z,1.83
2022-11-21T06:20:30.106Z,1.70
2022-11-21T06:22:59.772Z,1.60
2022-11-21T06:25:28.094Z,1.30
2022-11-21T06:27:56.376Z,1.70
2022-11-21T06:30:25.184Z,1.50
2022-11-21T06:32:53.574Z,1.40
2022-11-21T06:35:21.868Z,1.43
2022-11-21T06:37:53.569Z,1.20
2022-11-21T06:40:23.492Z,1.10
2022-11-21T06:42:51.810Z,1.20
2022-11-21T06:45:20.178Z,1.03
2022-11-21T06:47:48.719Z,1.00
2022-11-21T06:50:17.658Z,0.87
2022-11-21T06:52:45.865Z,1.13
2022-11-21T06:55:14.752Z,0.87
2022-11-21T06:57:44.749Z,1.10
2022-11-21T07:00:14.380Z,1.13
2022-11-21T07:02:42.716Z,1.03
2022-11-21T07:05:11.300Z,1.40
2022-11-21T07:07:39.615Z,1.30
2022-11-21T07:10:08.953Z,1.53
2022-11-21T07:12:54.975Z,1.60
2022-11-21T07:15:27.079Z,1.50
2022-11-21T07:17:55.357Z,1.40
2022-11-21T07:20:23.680Z,1.70
2022-11-21T07:22:55.232Z,1.53
2022-11-21T07:25:23.803Z,1.90
2022-11-21T07:27:52.119Z,1.67
2022-11-21T07:30:20.695Z,2.63
2022-11-21T07:32:56.105Z,2.17
2022-11-21T07:35:24.449Z,2.13
2022-11-21T07:37:52.971Z,2.10
2022-11-21T07:40:21.451Z,2.20
2022-11-21T07:42:49.731Z,2.20
2022-11-21T07:45:18.151Z,2.40
2022-11-21T07:47:47.045Z,2.90
2022-11-21T07:50:16.962Z,2.90
2022-11-21T07:52:45.466Z,2.97
2022-11-21T07:55:14.475Z,4.70
2022-11-21T07:57:42.709Z,4.07
2022-11-21T08:00:12.088Z,3.13
2022-11-21T08:02:40.339Z,3.60
2022-11-21T08:05:09.021Z,2.90
2022-11-21T08:07:39.068Z,3.60
2022-11-21T08:10:08.162Z,2.60
2022-11-21T08:12:36.517Z,2.43
2022-11-21T08:15:06.955Z,2.97
2022-11-21T08:17:35.187Z,3.10
2022-11-21T08:20:04.443Z,4.50
2022-11-21T08:22:32.714Z,4.00
2022-11-21T08:25:02.532Z,5.93
2022-11-21T08:27:30.831Z,5.57
2022-11-21T08:29:59.175Z,4.80
2022-11-21T08:32:27.788Z,5.47
2022-11-21T08:34:56.030Z,4.37
2022-11-21T08:37:24.253Z,4.10
2022-11-21T08:39:52.480Z,3.97
2022-11-21T08:42:22.152Z,6.23
2022-11-21T08:44:50.485Z,7.23
2022-11-21T08:47:19.275Z,6.73
2022-11-21T08:49:47.586Z,7.27
2022-11-21T08:52:17.429Z,5.93
2022-11-21T08:54:45.827Z,5.47
2022-11-21T08:57:14.143Z,6.83
2022-11-21T08:59:44.084Z,5.77
2022-11-21T09:02:12.526Z,5.53
2022-11-21T09:04:40.764Z,7.73
2022-11-21T09:07:09.196Z,6.67
2022-11-21T09:09:37.574Z,4.30
2022-11-21T09:12:06.261Z,6.57
2022-11-21T09:14:51.564Z,6.03
2022-11-21T09:17:38.705Z,5.10
2022-11-21T09:20:07.712Z,5.13
2022-11-21T09:22:36.024Z,4.53
2022-11-21T09:25:04.368Z,5.47
2022-11-21T09:27:32.676Z,11.47
2022-11-21T09:30:01.271Z,4.23
2022-11-21T09:32:30.932Z,4.20
2022-11-21T09:34:59.287Z,10.27
2022-11-21T09:37:27.528Z,5.23
2022-11-21T09:39:55.845Z,6.00
2022-11-21T09:42:33.203Z,5.70
2022-11-21T09:45:09.402Z,4.90
2022-11-21T09:47:39.615Z,4.57
2022-11-21T09:50:15.123Z,4.37
2022-11-21T09:52:47.073Z,5.30
2022-11-21T09:55:19.514Z,6.50
2022-11-21T09:57:48.856Z,8.73
2022-11-21T10:00:21.677Z,7.73
2022-11-21T10:02:51.370Z,5.00
2022-11-21T10:05:20.707Z,5.90
2022-11-21T10:07:49.069Z,6.27
2022-11-21T10:10:30.442Z,5.93
2022-11-21T10:13:08.169Z,9.73
2022-11-21T10:15:44.650Z,12.07
2022-11-21T10:18:32.829Z,10.43
2022-11-21T10:21:04.040Z,12.77
2022-11-21T10:23:53.739Z,11.40
2022-11-21T10:26:34.921Z,7.43
2022-11-21T10:29:05.756Z,7.03
2022-11-21T10:31:37.500Z,6.50
2022-11-21T10:34:09.754Z,6.90
2022-11-21T10:36:39.277Z,5.17
2022-11-21T10:39:08.896Z,6.17
2022-11-21T10:41:41.749Z,6.10
2022-11-21T10:44:32.895Z,6.50
2022-11-21T10:47:02.084Z,6.60
2022-11-21T10:49:34.815Z,6.77
2022-11-21T10:52:06.907Z,7.53
2022-11-21T10:54:34.227Z,6.83
2022-11-21T10:57:07.165Z,15.73
2022-11-21T10:59:35.455Z,9.40
2022-11-21T11:02:04.470Z,6.87
2022-11-21T11:04:44.576Z,6.63
2022-11-21T11:07:22.023Z,6.53
2022-11-21T11:09:52.495Z,5.57
2022-11-21T11:12:51.049Z,6.80
2022-11-21T11:15:20.980Z,6.37
2022-11-21T11:17:52.674Z,6.10
2022-11-21T11:20:34.445Z,6.23
2022-11-21T11:23:07.565Z,5.57
2022-11-21T11:25:36.933Z,5.63
2022-11-21T11:28:08.747Z,5.30
2022-11-21T11:30:38.323Z,5.27
2022-11-21T11:33:11.065Z,5.83
2022-11-21T11:35:40.768Z,5.13
2022-11-21T11:38:09.761Z,5.13
2022-11-21T11:40:39.177Z,5.57
2022-11-21T11:43:33.030Z,5.70
2022-11-21T11:46:37.177Z,5.10
2022-11-21T11:49:22.910Z,4.67
2022-11-21T11:51:55.495Z,4.90
2022-11-21T11:54:24.914Z,5.93
2022-11-21T11:56:53.151Z,5.53
2022-11-21T11:59:23.317Z,4.77
2022-11-21T12:01:53.143Z,4.47
2022-11-21T12:04:22.202Z,4.63
2022-11-21T12:09:44.464Z,4.53
2022-11-21T12:12:16.566Z,4.33
2022-11-21T12:15:07.145Z,4.37
2022-11-21T12:17:38.633Z,3.87
2022-11-21T12:20:16.885Z,4.70
2022-11-21T12:22:47.172Z,7.30
2022-11-21T12:25:15.582Z,5.30
2022-11-21T12:27:43.828Z,5.10
2022-11-21T12:30:34.468Z,4.50
2022-11-21T12:33:08.632Z,3.83
2022-11-21T12:35:54.246Z,3.87
2022-11-21T12:38:31.803Z,4.53
2022-11-21T12:41:31.340Z,5.20
2022-11-21T12:44:04.001Z,7.63
2022-11-21T12:46:34.734Z,4.97
2022-11-21T12:49:21.924Z,4.70
2022-11-21T12:52:22.985Z,3.97
2022-11-21T12:55:10.400Z,4.13
2022-11-21T12:57:46.206Z,4.27
2022-11-21T13:00:17.326Z,4.27
2022-11-21T13:02:54.849Z,4.70
2022-11-21T13:05:27.762Z,4.80
2022-11-21T13:07:59.964Z,5.60
2022-11-21T13:10:29.750Z,5.53
2022-11-21T13:13:00.411Z,5.23
2022-11-21T13:15:36.924Z,5.13
2022-11-21T13:18:14.818Z,5.50
2022-11-21T13:20:47.972Z,6.00
2022-11-21T13:23:37.234Z,5.20
2022-11-21T13:26:44.355Z,5.23
2022-11-21T13:29:14.161Z,4.90
2022-11-21T13:31:42.462Z,5.33
2022-11-21T13:34:36.561Z,5.50
2022-11-21T13:37:05.608Z,4.80
2022-11-21T13:39:35.331Z,4.90
2022-11-21T13:42:28.247Z,4.50
2022-11-21T13:44:58.307Z,3.83
2022-11-21T13:48:11.280Z,3.67
2022-11-21T13:51:17.929Z,3.57
2022-11-21T13:54:14.023Z,3.70
2022-11-21T13:56:44.445Z,3.00
2022-11-21T13:59:22.895Z,3.67
2022-11-21T14:02:06.658Z,3.90
2022-11-21T14:04:56.463Z,3.13
2022-11-21T14:07:26.234Z,3.33
2022-11-21T14:09:55.324Z,4.53
2022-11-21T14:12:30.079Z,3.30
2022-11-21T14:15:21.869Z,3.80
2022-11-21T14:17:52.463Z,3.10
2022-11-21T14:20:22.274Z,3.00
2022-11-21T14:22:58.850Z,3.00
2022-11-21T14:25:32.157Z,3.20
2022-11-21T14:28:00.579Z,3.00
2022-11-21T14:30:34.756Z,3.00
2022-11-21T14:33:33.295Z,3.17
2022-11-21T14:36:03.990Z,3.17
2022-11-21T14:38:34.303Z,3.33
2022-11-21T14:41:30.148Z,3.33
2022-11-21T14:44:18.240Z,2.80
2022-11-21T14:46:47.453Z,3.40
2022-11-21T14:49:29.600Z,3.20
2022-11-21T14:52:17.198Z,3.63
2022-11-21T14:55:15.022Z,3.10
2022-11-21T14:57:39.105Z,3.53
2022-11-21T15:00:10.072Z,3.30
2022-11-21T15:02:38.435Z,3.80
2022-11-21T15:05:09.314Z,4.13
2022-11-21T15:07:41.608Z,4.30
2022-11-21T15:10:30.232Z,3.67
2022-11-21T15:13:00.219Z,3.87
2022-11-21T15:15:30.686Z,4.10
2022-11-21T15:20:50.004Z,3.90
2022-11-21T15:23:27.967Z,3.70
2022-11-21T15:26:00.633Z,4.10
2022-11-21T15:28:30.108Z,4.40
2022-11-21T15:31:20.325Z,3.67
2022-11-21T15:34:12.556Z,4.13
2022-11-21T15:36:45.404Z,4.07
2022-11-21T15:39:14.422Z,3.63
2022-11-21T15:41:43.008Z,3.93
2022-11-21T15:44:24.126Z,3.83
2022-11-21T15:46:53.714Z,3.70
2022-11-21T15:49:37.417Z,3.13
2022-11-21T15:52:10.501Z,3.53
2022-11-21T15:54:39.322Z,3.77
2022-11-21T15:57:07.709Z,3.43
2022-11-21T15:59:36.087Z,3.57
2022-11-21T16:02:04.393Z,3.40
2022-11-21T16:04:32.655Z,3.77
2022-11-21T16:07:00.943Z,3.40
2022-11-21T16:09:31.217Z,3.47
2022-11-21T16:11:59.663Z,4.17
2022-11-21T16:14:27.980Z,4.20
2022-11-21T16:16:56.320Z,3.80
2022-11-21T16:19:24.578Z,4.00
2022-11-21T16:21:53.703Z,3.90
2022-11-21T16:24:22.189Z,4.07
2022-11-21T16:26:54.704Z,4.00
2022-11-21T16:29:23.219Z,3.87
2022-11-21T16:31:51.527Z,3.97
2022-11-21T16:34:23.265Z,3.60
2022-11-21T16:36:51.873Z,3.90
2022-11-21T16:39:20.277Z,3.70
2022-11-21T16:41:49.486Z,3.80
2022-11-21T16:44:19.230Z,3.70
2022-11-21T16:46:49.243Z,3.53
2022-11-21T16:49:17.545Z,3.77
2022-11-21T16:51:46.365Z,4.23
2022-11-21T16:54:14.648Z,3.73
2022-11-21T16:56:42.984Z,3.93
2022-11-21T16:59:11.241Z,3.70
2022-11-21T17:01:41.104Z,3.77
2022-11-21T17:04:16.859Z,3.30
2022-11-21T17:06:47.174Z,3.80
2022-11-21T17:09:15.681Z,4.70
2022-11-21T17:11:44.108Z,4.37
2022-11-21T17:14:13.362Z,4.07
2022-11-21T17:16:43.048Z,4.00
2022-11-21T17:19:13.468Z,3.80
2022-11-21T17:21:41.831Z,4.30
2022-11-21T17:24:10.276Z,3.30
2022-11-21T17:26:39.206Z,3.73
2022-11-21T17:29:09.129Z,3.37
2022-11-21T17:31:37.823Z,3.80
2022-11-21T17:34:08.334Z,3.67
2022-11-21T17:36:36.604Z,3.63
2022-11-21T17:39:04.976Z,3.87
2022-11-21T17:41:33.325Z,3.53
2022-11-21T17:44:02.106Z,3.53
2022-11-21T17:46:31.915Z,3.10
2022-11-21T17:49:00.344Z,3.80
2022-11-21T17:51:30.719Z,3.73
2022-11-21T17:53:59.598Z,4.93
2022-11-21T17:56:29.792Z,5.23
2022-11-21T17:58:58.367Z,5.70
2022-11-21T18:01:27.004Z,5.33
2022-11-21T18:03:56.501Z,6.60
2022-11-21T18:06:31.454Z,7.63
2022-11-21T18:09:01.193Z,8.00
2022-11-21T18:11:39.197Z,7.03
2022-11-21T18:14:11.116Z,6.47
2022-11-21T18:16:40.253Z,6.87
2022-11-21T18:19:08.648Z,6.40
2022-11-21T18:21:37.508Z,8.90
2022-11-21T18:24:08.125Z,9.97
2022-11-21T18:26:37.649Z,10.97
2022-11-21T18:29:35.298Z,9.30
2022-11-21T18:31:55.399Z,9.77
2022-11-21T18:34:23.641Z,8.87
2022-11-21T18:36:52.033Z,9.40
2022-11-21T18:39:23.164Z,7.97
2022-11-21T18:41:51.687Z,7.57
2022-11-21T18:44:22.276Z,7.53
2022-11-21T18:46:51.136Z,6.13
2022-11-21T18:49:19.437Z,6.57
2022-11-21T18:52:02.272Z,6.80
2022-11-21T18:54:30.553Z,6.50
2022-11-21T18:56:58.815Z,5.83
2022-11-21T18:59:27.867Z,6.20
2022-11-21T19:01:56.430Z,6.07
2022-11-21T19:04:25.671Z,5.97
2022-11-21T19:06:53.889Z,6.07
2022-11-21T19:09:25.830Z,6.27
2022-11-21T19:11:57.712Z,5.93
2022-11-21T19:14:26.496Z,5.40
2022-11-21T19:16:54.817Z,6.00
2022-11-21T19:19:38.256Z,6.13
2022-11-21T19:22:06.522Z,5.63
2022-11-21T19:24:36.313Z,6.00
2022-11-21T19:27:04.981Z,5.57
2022-11-21T19:29:33.242Z,6.70
2022-11-21T19:32:01.515Z,6.83
2022-11-21T19:34:29.751Z,6.30
2022-11-21T19:36:57.969Z,7.93
2022-11-21T19:39:26.882Z,7.03
2022-11-21T19:41:56.966Z,8.50
2022-11-21T19:44:25.199Z,8.57
2022-11-21T19:46:53.530Z,6.33
2022-11-21T19:49:21.851Z,6.17
2022-11-21T19:51:50.063Z,5.93
2022-11-21T19:54:18.708Z,5.83
2022-11-21T19:56:46.950Z,6.40
2022-11-21T19:59:16.727Z,6.30
2022-11-21T20:01:49.485Z,6.77
2022-11-21T20:04:20.492Z,7.13
2022-11-21T20:06:48.956Z,7.27
2022-11-21T20:09:17.915Z,7.63
2022-11-21T20:11:46.780Z,6.80
2022-11-21T20:14:21.477Z,6.57
2022-11-21T20:16:50.362Z,6.37
2022-11-21T20:19:19.282Z,5.77
2022-11-21T20:21:47.935Z,5.87
2022-11-21T20:24:16.161Z,6.40
2022-11-21T20:26:44.509Z,6.30
2022-11-21T20:29:13.413Z,8.00
2022-11-21T20:31:43.153Z,8.20
2022-11-21T20:34:13.045Z,8.03
2022-11-21T20:36:41.310Z,7.30
2022-11-21T20:39:10.282Z,5.80
2022-11-21T20:41:38.540Z,5.53
2022-11-21T20:46:57.159Z,4.80
2022-11-21T20:49:25.684Z,4.50
2022-11-21T20:54:42.123Z,4.83
2022-11-21T20:57:14.888Z,4.60
2022-11-21T20:59:43.574Z,5.00
2022-11-21T21:02:14.344Z,4.90
2022-11-21T21:04:42.817Z,5.30
2022-11-21T21:07:11.226Z,5.20
2022-11-21T21:09:39.475Z,4.90
2022-11-21T21:12:07.974Z,4.67
2022-11-21T21:14:36.415Z,4.73
2022-11-21T21:17:04.905Z,4.13
2022-11-21T21:19:34.561Z,4.30
2022-11-21T21:22:04.943Z,3.90
2022-11-21T21:24:33.189Z,4.50
2022-11-21T21:27:01.433Z,4.07
2022-11-21T21:29:30.318Z,3.87
2022-11-21T21:31:58.779Z,3.60
2022-11-21T21:34:27.041Z,3.83
2022-11-21T21:36:56.652Z,3.97
2022-11-21T21:39:25.418Z,3.90
2022-11-21T21:41:53.637Z,3.80
2022-11-21T21:44:22.113Z,3.70
2022-11-21T21:46:50.311Z,4.40
2022-11-21T21:49:18.533Z,4.10
2022-11-21T21:51:46.796Z,4.60
2022-11-21T21:54:18.590Z,4.23
2022-11-21T21:56:47.200Z,3.73
2022-11-21T21:59:15.728Z,4.23
2022-11-21T22:01:44.055Z,3.90
2022-11-21T22:04:12.424Z,3.73
2022-11-21T22:06:40.620Z,3.40
2022-11-21T22:09:08.851Z,3.27
2022-11-21T22:11:39.331Z,3.57
2022-11-21T22:14:08.393Z,3.30
2022-11-21T22:16:36.557Z,3.67
2022-11-21T22:19:04.752Z,3.70
2022-11-21T22:21:33.550Z,3.30
2022-11-21T22:24:24.283Z,3.90
2022-11-21T22:26:51.879Z,3.73
2022-11-21T22:29:20.424Z,3.53
2022-11-21T22:31:48.615Z,3.53
2022-11-21T22:34:16.803Z,3.57
2022-11-21T22:36:46.807Z,3.40
2022-11-21T22:39:15.509Z,3.30
2022-11-21T22:41:43.709Z,3.37
2022-11-21T22:44:13.381Z,3.43
2022-11-21T22:46:41.610Z,3.30
2022-11-21T22:49:09.808Z,3.17
2022-11-21T22:51:37.994Z,3.23
2022-11-21T22:54:06.257Z,3.13
2022-11-21T22:56:34.435Z,2.97
2022-11-21T22:59:02.615Z,3.13
2022-11-21T23:01:33.340Z,3.07
2022-11-21T23:04:01.571Z,3.20
2022-11-21T23:06:30.000Z,3.13
2022-11-21T23:08:58.230Z,3.50
2022-11-21T23:11:27.919Z,4.27
2022-11-21T23:13:56.611Z,3.30
2022-11-21T23:16:24.848Z,3.13
2022-11-21T23:18:54.600Z,3.50
2022-11-21T23:21:23.389Z,3.17
2022-11-21T23:23:51.660Z,3.20
2022-11-21T23:26:20.356Z,2.93
2022-11-21T23:28:48.575Z,3.20
2022-11-21T23:31:17.228Z,2.73
2022-11-21T23:33:45.803Z,2.73
2022-11-21T23:36:15.406Z,2.80
2022-11-21T23:38:43.627Z,2.97
2022-11-21T23:41:11.903Z,3.87
2022-11-21T23:43:40.263Z,3.30
2022-11-21T23:46:08.738Z,2.97
2022-11-21T23:48:36.970Z,2.50
2022-11-21T23:51:05.361Z,2.63
2022-11-21T23:53:34.995Z,2.63
2022-11-21T23:56:03.208Z,3.10
2022-11-21T23:58:31.436Z,2.80
